PANC/ANC METAR and TAF weather

Enter ICAO airport designator
Station Type Date Time Source
PANC METAR 2021/03/03 01:53 UTC NOAA

PANC 030153Z 04006KT 10SM FEW015 BKN200 M09/M13 A2922 RMK AO2 SLP896 T10891128


Station Type Date Time Source
PANC Decoded METAR 2021/03/03 01:53 UTC NOAA

TED STEVENS ANCHORAGE INTERNATIONAL , AK, United States (PANC) 61-10N 150-02W 48M
Mar 02, 2021 - 08:53 PM EST / 2021.03.03 0153 UTC
Wind: from the NE (040 degrees) at 7 MPH (6 KT):0
Visibility: 10 mile(s):0
Sky conditions: mostly cloudy
Temperature: 16.0 F (-8.9 C)
Windchill: 6 F (-14 C):1
Dew Point: 9.0 F (-12.8 C)
Relative Humidity: 73%
Pressure (altimeter): 29.22 in. Hg (989 hPa)
ob: PANC 030153Z 04006KT 10SM FEW015 BKN200 M09/M13 A2922 RMK AO2 SLP896 T10891128
cycle: 2

Station Type Date Time Source
PANC TAF 2021/03/02 21:54 UTC NOAA

TAF
AMD PANC 022052Z 0221/0324 02006KT P6SM FEW005 SCT010 BKN100
FM030800 VRB03KT P6SM VCFG SCT005

Example: see airport list